Time;durP1;ratioP1;P1;durP2;ratioP2;P2;SDS_P1;SDS_P2;PMS_P1;PMS_P2;Temp;Humidity;BMP_temperature;BMP_pressure;BME280_temperature;BME280_humidity;BME280_pressure;Samples;Min_cycle;Max_cycle;Signal;HPM_P1;HPM_P2
2023/05/28 00:00:11;;;;;;;8.88;4.65;;;16.20;89.80;;;;;;6193951;23;20013;-90
2023/05/28 00:02:37;;;;;;;11.00;4.53;;;;;;;;;;6193301;23;20055;-89
2023/05/28 00:05:04;;;;;;;8.70;3.97;;;16.10;90.10;;;;;;6190310;23;20016;-89
2023/05/28 00:07:30;;;;;;;12.07;4.50;;;;;;;;;;6193416;23;20005;-89
2023/05/28 00:09:56;;;;;;;10.68;4.68;;;;;;;;;;6197527;23;19997;-88
2023/05/28 00:12:23;;;;;;;7.55;4.05;;;;;;;;;;6195834;23;20005;-89
2023/05/28 00:14:49;;;;;;;10.20;3.90;;;;;;;;;;6195845;23;20005;-88
2023/05/28 00:17:16;;;;;;;9.98;4.32;;;;;;;;;;6196740;23;20005;-91
2023/05/28 00:19:43;;;;;;;11.25;4.63;;;;;;;;;;6195926;23;20009;-90
2023/05/28 00:22:09;;;;;;;11.82;4.03;;;;;;;;;;6196603;23;20029;-89
2023/05/28 00:24:35;;;;;;;9.23;3.83;;;;;;;;;;6197754;23;20001;-89
2023/05/28 00:27:02;;;;;;;10.57;4.63;;;;;;;;;;6196709;23;20009;-88
2023/05/28 00:29:29;;;;;;;14.98;4.50;;;;;;;;;;6205381;23;20024;-88
2023/05/28 00:31:57;;;;;;;8.75;3.85;;;;;;;;;;6211471;23;19993;-89
2023/05/28 00:34:24;;;;;;;8.38;3.80;;;;;;;;;;6211395;23;20020;-89
2023/05/28 00:36:50;;;;;;;9.15;3.85;;;;;;;;;;6207528;23;20017;-88
2023/05/28 00:39:17;;;;;;;7.38;3.65;;;;;;;;;;6204169;23;20001;-88
2023/05/28 00:41:43;;;;;;;9.98;4.43;;;;;;;;;;6198006;23;20035;-90
2023/05/28 00:44:09;;;;;;;8.70;3.75;;;;;;;;;;6200251;23;20064;-87
2023/05/28 00:46:39;;;;;;;8.55;4.10;;;16.00;90.20;;;;;;6199684;23;20096;-89
2023/05/28 00:49:06;;;;;;;14.75;4.82;;;;;;;;;;6196990;23;20082;-89
2023/05/28 00:51:32;;;;;;;11.35;4.20;;;;;;;;;;6199656;23;20074;-87
2023/05/28 00:53:58;;;;;;;11.32;3.35;;;;;;;;;;6199043;23;20009;-88
2023/05/28 00:56:28;;;;;;;8.05;3.83;;;;;;;;;;6200148;23;19997;-88
2023/05/28 00:58:56;;;;;;;9.27;3.73;;;;;;;;;;6200769;23;20057;-89
2023/05/28 01:01:26;;;;;;;9.65;3.80;;;16.00;90.40;;;;;;6198812;23;20375;-89
2023/05/28 01:03:52;;;;;;;11.80;5.32;;;;;;;;;;6199984;23;20453;-88
2023/05/28 01:06:20;;;;;;;10.35;4.10;;;;;;;;;;6201654;23;20005;-89
2023/05/28 01:08:47;;;;;;;8.98;4.00;;;;;;;;;;6201624;23;20500;-89
2023/05/28 01:11:16;;;;;;;9.80;4.25;;;17.10;91.20;;;;;;6201154;23;20004;-89
2023/05/28 01:13:42;;;;;;;10.55;3.90;;;;;;;;;;6200077;23;20005;-87
2023/05/28 01:16:09;;;;;;;10.18;4.00;;;;;;;;;;6196904;23;20001;-89
2023/05/28 01:18:38;;;;;;;9.77;3.78;;;;;;;;;;6199427;23;20024;-91
2023/05/28 01:21:04;;;;;;;10.88;4.07;;;;;;;;;;6200803;23;20032;-90
2023/05/28 01:23:47;;;;;;;10.30;4.30;;;15.90;91.10;;;;;;6196716;23;20005;-88
2023/05/28 01:26:14;;;;;;;11.00;3.88;;;15.90;91.30;;;;;;6196361;23;20033;-89
2023/05/28 01:28:50;;;;;;;9.98;3.90;;;;;;;;;;6201928;23;20005;-89
2023/05/28 01:31:16;;;;;;;11.18;3.92;;;15.80;91.30;;;;;;6172461;23;20009;-88
2023/05/28 01:33:43;;;;;;;8.98;4.18;;;;;;;;;;6202121;23;20384;-87
2023/05/28 01:36:18;;;;;;;10.55;4.55;;;15.80;91.40;;;;;;6198489;23;20013;-89
2023/05/28 01:38:49;;;;;;;9.50;3.90;;;;;;;;;;6175907;23;20013;-89
2023/05/28 01:41:19;;;;;;;10.25;5.03;;;;;;;;;;6197048;23;20060;-89
2023/05/28 01:43:45;;;;;;;10.82;4.35;;;;;;;;;;6199056;23;19997;-88
2023/05/28 01:46:11;;;;;;;9.05;4.25;;;;;;;;;;6200438;23;20013;-86
2023/05/28 01:48:37;;;;;;;9.07;4.20;;;;;;;;;;6197648;23;20012;-87
2023/05/28 01:51:03;;;;;;;13.18;4.32;;;;;;;;;;6193771;23;20365;-85
2023/05/28 01:53:30;;;;;;;7.30;3.75;;;;;;;;;;6192404;23;20099;-89
2023/05/28 01:55:56;;;;;;;10.57;3.83;;;;;;;;;;6193518;23;20009;-86
2023/05/28 01:58:22;;;;;;;15.32;4.22;;;;;;;;;;6194154;23;20088;-90
2023/05/28 02:01:02;;;;;;;7.55;3.90;;;15.40;92.50;;;;;;6194100;23;20064;-90
2023/05/28 02:03:28;;;;;;;10.82;4.10;;;;;;;;;;6196076;23;20352;-89
2023/05/28 02:05:54;;;;;;;11.57;4.65;;;;;;;;;;6192941;23;20092;-89
2023/05/28 02:08:20;;;;;;;9.68;4.43;;;;;;;;;;6193495;23;20035;-89
2023/05/28 02:10:46;;;;;;;11.93;4.13;;;;;;;;;;6196143;23;20005;-87
2023/05/28 02:13:12;;;;;;;11.77;4.45;;;;;;;;;;6196815;23;20032;-90
2023/05/28 02:15:38;;;;;;;11.00;4.80;;;;;;;;;;6196854;23;20005;-89
2023/05/28 02:18:04;;;;;;;10.57;4.25;;;;;;;;;;6196077;23;20009;-89
2023/05/28 02:20:30;;;;;;;11.25;4.47;;;;;;;;;;6194284;23;20012;-85
2023/05/28 02:22:56;;;;;;;9.20;4.47;;;;;;;;;;6196757;23;20008;-89
2023/05/28 02:25:23;;;;;;;11.32;4.47;;;;;;;;;;6194631;23;20785;-91
2023/05/28 02:27:49;;;;;;;11.02;3.83;;;;;;;;;;6194383;23;20040;-88
2023/05/28 02:30:15;;;;;;;9.43;4.20;;;;;;;;;;6194411;23;20009;-89
2023/05/28 02:32:41;;;;;;;9.88;3.85;;;;;;;;;;6192108;23;20009;-86
2023/05/28 02:35:08;;;;;;;7.97;3.90;;;;;;;;;;6192431;23;20072;-89
2023/05/28 02:37:34;;;;;;;8.57;3.90;;;;;;;;;;6195422;23;20005;-87
2023/05/28 02:40:00;;;;;;;8.45;3.75;;;;;;;;;;6194814;23;20008;-86
2023/05/28 02:42:26;;;;;;;11.52;3.83;;;;;;;;;;6193991;23;19989;-89
2023/05/28 02:44:52;;;;;;;12.23;4.47;;;;;;;;;;6195418;23;20016;-90
2023/05/28 02:47:18;;;;;;;9.05;4.30;;;;;;;;;;6193095;23;20027;-88
2023/05/28 02:49:44;;;;;;;10.80;3.63;;;;;;;;;;6197286;23;20009;-87
2023/05/28 02:52:10;;;;;;;9.82;4.18;;;;;;;;;;6194880;23;20009;-87
2023/05/28 02:54:36;;;;;;;10.90;3.97;;;;;;;;;;6198509;23;20005;-89
2023/05/28 02:57:02;;;;;;;6.93;3.70;;;;;;;;;;6197926;23;20056;-87
2023/05/28 02:59:28;;;;;;;10.88;4.65;;;;;;;;;;6197083;23;20047;-90
2023/05/28 03:01:54;;;;;;;10.20;4.47;;;;;;;;;;6192440;23;20001;-88
2023/05/28 03:04:20;;;;;;;11.82;4.25;;;;;;;;;;6196848;23;20001;-90
2023/05/28 03:06:46;;;;;;;10.18;4.47;;;;;;;;;;6198453;23;20013;-89
2023/05/28 03:09:13;;;;;;;14.27;4.75;;;;;;;;;;6199245;23;20004;-88
2023/05/28 03:11:39;;;;;;;9.85;3.90;;;;;;;;;;6197183;23;20384;-89
2023/05/28 03:14:05;;;;;;;11.55;3.78;;;;;;;;;;6197432;23;20001;-92
2023/05/28 03:16:32;;;;;;;11.10;3.90;;;;;;;;;;6199447;23;20060;-86
2023/05/28 03:18:58;;;;;;;8.80;4.63;;;;;;;;;;6211202;23;20009;-83
2023/05/28 03:21:24;;;;;;;11.52;4.10;;;;;;;;;;6209558;23;20213;-86
2023/05/28 03:23:50;;;;;;;10.27;3.67;;;;;;;;;;6210272;23;20001;-87
2023/05/28 03:26:16;;;;;;;8.40;4.30;;;;;;;;;;6204622;23;20063;-86
2023/05/28 03:28:42;;;;;;;8.73;3.97;;;;;;;;;;6199043;23;20025;-90
2023/05/28 03:31:08;;;;;;;8.85;3.90;;;;;;;;;;6199095;23;20064;-89
2023/05/28 03:33:34;;;;;;;14.15;4.40;;;;;;;;;;6200038;23;19999;-84
2023/05/28 03:36:00;;;;;;;11.75;4.45;;;;;;;;;;6198672;23;20004;-90
2023/05/28 03:38:26;;;;;;;10.00;4.05;;;14.60;95.50;;;;;;6196363;23;20005;-85
2023/05/28 03:40:52;;;;;;;8.48;4.10;;;;;;;;;;6196173;23;20511;-85
2023/05/28 03:43:18;;;;;;;10.25;4.07;;;;;;;;;;6194398;23;20027;-86
2023/05/28 03:45:44;;;;;;;8.05;4.47;;;;;;;;;;6195867;23;20025;-89
2023/05/28 03:48:10;;;;;;;10.75;4.18;;;;;;;;;;6196948;23;20012;-87
2023/05/28 03:50:36;;;;;;;11.30;4.30;;;;;;;;;;6197914;23;19997;-88
2023/05/28 03:53:02;;;;;;;9.27;4.25;;;;;;;;;;6196827;23;20429;-90
2023/05/28 03:55:28;;;;;;;7.95;4.20;;;;;;;;;;6200714;23;19988;-87
2023/05/28 03:57:54;;;;;;;9.77;3.88;;;;;;;;;;6205410;23;19993;-86
2023/05/28 04:00:20;;;;;;;11.65;4.00;;;;;;;;;;6207497;23;20005;-88
2023/05/28 04:02:46;;;;;;;7.13;3.38;;;;;;;;;;6203230;23;20377;-88
2023/05/28 04:05:12;;;;;;;10.93;4.10;;;;;;;;;;6200546;23;20004;-87
2023/05/28 04:07:38;;;;;;;9.35;4.03;;;;;;;;;;6197899;23;20008;-88
2023/05/28 04:10:05;;;;;;;9.98;4.00;;;;;;;;;;6205121;23;20377;-86
2023/05/28 04:12:31;;;;;;;10.98;5.00;;;;;;;;;;6206012;23;19993;-86
2023/05/28 04:14:56;;;;;;;12.45;4.30;;;;;;;;;;6202966;23;19997;-87
2023/05/28 04:17:23;;;;;;;11.57;3.95;;;;;;;;;;6200710;23;20077;-86
2023/05/28 04:19:51;;;;;;;7.15;3.63;;;;;;;;;;6196908;23;20001;-85
2023/05/28 04:22:17;;;;;;;9.50;3.97;;;;;;;;;;6169274;23;20463;-89
2023/05/28 04:24:43;;;;;;;10.75;3.95;;;;;;;;;;6198224;23;20036;-89
2023/05/28 04:27:09;;;;;;;7.28;3.70;;;;;;;;;;6199648;23;20005;-89
2023/05/28 04:29:36;;;;;;;11.35;4.15;;;;;;;;;;6199873;23;20001;-89
2023/05/28 04:32:04;;;;;;;8.57;3.95;;;14.60;96.00;;;;;;6200678;23;20001;-90
2023/05/28 04:34:32;;;;;;;12.80;4.43;;;;;;;;;;6197462;23;20016;-90
2023/05/28 04:36:59;;;;;;;7.65;3.58;;;;;;;;;;6200060;23;20005;-89
2023/05/28 04:39:26;;;;;;;10.52;4.03;;;;;;;;;;6200358;23;20001;-86
2023/05/28 04:41:53;;;;;;;11.38;4.57;;;;;;;;;;6199339;23;20002;-87
2023/05/28 04:44:19;;;;;;;10.88;4.10;;;;;;;;;;6198263;23;20017;-90
2023/05/28 04:46:45;;;;;;;10.43;4.00;;;;;;;;;;6196838;23;20494;-89
2023/05/28 04:49:12;;;;;;;11.15;3.63;;;;;;;;;;6199155;23;20009;-89
2023/05/28 04:51:38;;;;;;;8.90;3.75;;;14.80;95.80;;;;;;6196322;23;20040;-89
2023/05/28 04:54:04;;;;;;;10.27;4.10;;;14.90;95.60;;;;;;6197799;23;20005;-89
2023/05/28 04:56:32;;;;;;;7.00;3.90;;;14.90;95.80;;;;;;6198949;23;20019;-87
2023/05/28 04:58:59;;;;;;;6.22;3.20;;;;;;;;;;6197449;23;20009;-90
2023/05/28 05:01:25;;;;;;;10.90;3.97;;;;;;;;;;6194806;23;20009;-85
2023/05/28 05:03:51;;;;;;;8.77;3.72;;;;;;;;;;6199311;23;20016;-88
2023/05/28 05:06:17;;;;;;;8.73;4.00;;;;;;;;;;6200650;23;20225;-88
2023/05/28 05:08:43;;;;;;;9.70;3.97;;;;;;;;;;6199640;23;20033;-88
2023/05/28 05:11:09;;;;;;;9.98;3.88;;;;;;;;;;6196237;23;20001;-89
2023/05/28 05:13:35;;;;;;;8.50;3.80;;;;;;;;;;6195596;23;20052;-88
2023/05/28 05:16:01;;;;;;;10.30;3.65;;;;;;;;;;6197476;23;20024;-85
2023/05/28 05:18:27;;;;;;;8.93;3.90;;;;;;;;;;6198705;23;20005;-91
2023/05/28 05:20:55;;;;;;;8.35;3.78;;;;;;;;;;6198277;23;20007;-88
2023/05/28 05:23:21;;;;;;;7.40;3.60;;;;;;;;;;6197015;23;20001;-86
2023/05/28 05:25:47;;;;;;;9.05;3.83;;;;;;;;;;6209218;23;20012;-85
2023/05/28 05:28:13;;;;;;;10.43;3.65;;;;;;;;;;6208853;23;20052;-85
2023/05/28 05:30:39;;;;;;;10.60;4.20;;;;;;;;;;6207148;23;19993;-84
2023/05/28 05:33:05;;;;;;;8.80;3.90;;;;;;;;;;6206138;23;19990;-85
2023/05/28 05:35:31;;;;;;;9.93;4.28;;;;;;;;;;6211424;23;20024;-85
2023/05/28 05:37:57;;;;;;;9.23;4.05;;;;;;;;;;6210200;23;20012;-88
2023/05/28 05:40:23;;;;;;;8.98;3.60;;;;;;;;;;6200347;23;20013;-85
2023/05/28 05:42:49;;;;;;;8.85;4.05;;;;;;;;;;6196995;23;20005;-89
2023/05/28 05:45:15;;;;;;;8.55;4.03;;;;;;;;;;6195900;23;20060;-88
2023/05/28 05:47:41;;;;;;;10.43;3.97;;;;;;;;;;6195295;23;20001;-89
2023/05/28 05:50:07;;;;;;;8.40;3.50;;;19.50;86.90;;;;;;6195114;23;19997;-89
2023/05/28 05:52:33;;;;;;;8.80;3.47;;;;;;;;;;6166891;23;20017;-87
2023/05/28 05:54:59;;;;;;;7.93;3.53;;;;;;;;;;6197243;23;20017;-90
2023/05/28 05:57:26;;;;;;;8.38;3.92;;;19.30;87.20;;;;;;6200145;23;20048;-89
2023/05/28 05:59:52;;;;;;;9.93;3.60;;;;;;;;;;6198829;23;20012;-91
2023/05/28 06:02:18;;;;;;;8.18;3.50;;;;;;;;;;6197338;23;20009;-88
2023/05/28 06:04:44;;;;;;;7.53;3.72;;;;;;;;;;6201811;23;20053;-89
2023/05/28 06:07:10;;;;;;;7.80;3.58;;;;;;;;;;6197256;23;20051;-87
2023/05/28 06:09:36;;;;;;;10.65;4.28;;;;;;;;;;6204712;23;20004;-88
2023/05/28 06:12:02;;;;;;;8.57;3.88;;;;;;;;;;6205314;23;20012;-86
2023/05/28 06:14:29;;;;;;;7.45;4.00;;;;;;;;;;6200366;23;20032;-89
2023/05/28 06:16:55;;;;;;;8.32;3.85;;;;;;;;;;6195137;23;20001;-90
2023/05/28 06:19:21;;;;;;;7.82;3.60;;;;;;;;;;6194518;23;20593;-90
2023/05/28 06:21:47;;;;;;;7.35;3.70;;;;;;;;;;6193520;23;20005;-89
2023/05/28 06:24:13;;;;;;;7.32;3.60;;;;;;;;;;6197832;23;20041;-88
2023/05/28 06:26:39;;;;;;;7.40;3.55;;;;;;;;;;6197756;23;20013;-91
2023/05/28 06:29:07;;;;;;;9.20;3.90;;;;;;;;;;6197561;23;20065;-85
2023/05/28 06:31:33;;;;;;;10.70;4.13;;;;;;;;;;6196298;23;20136;-86
2023/05/28 06:33:59;;;;;;;10.43;3.95;;;;;;;;;;6196972;23;19997;-88
2023/05/28 06:36:25;;;;;;;7.13;3.78;;;17.40;91.90;;;;;;6199886;23;20057;-90
2023/05/28 06:38:51;;;;;;;7.60;3.50;;;17.60;91.50;;;;;;6197324;23;20005;-90
2023/05/28 06:41:17;;;;;;;8.57;3.45;;;;;;;;;;6172431;23;20445;-91
2023/05/28 06:43:43;;;;;;;7.45;3.63;;;;;;;;;;6196452;23;20065;-89
2023/05/28 06:46:09;;;;;;;10.75;3.95;;;;;;;;;;6196779;23;20005;-90
2023/05/28 06:48:35;;;;;;;7.53;3.53;;;;;;;;;;6199462;23;20001;-91
2023/05/28 06:51:01;;;;;;;6.80;3.50;;;;;;;;;;6201219;23;20011;-89
2023/05/28 06:53:27;;;;;;;9.75;3.80;;;;;;;;;;6202381;23;20028;-89
2023/05/28 06:55:53;;;;;;;8.00;3.40;;;;;;;;;;6200335;23;20016;-87
2023/05/28 06:58:19;;;;;;;7.63;3.60;;;;;;;;;;6206848;23;20009;-85
2023/05/28 07:00:45;;;;;;;9.15;3.38;;;;;;;;;;6204058;23;20001;-86
2023/05/28 07:03:11;;;;;;;8.00;3.30;;;;;;;;;;6207991;23;20057;-84
2023/05/28 07:05:37;;;;;;;7.32;3.78;;;;;;;;;;6209731;23;20001;-85
2023/05/28 07:08:03;;;;;;;9.15;4.13;;;;;;;;;;6211500;23;20024;-86
2023/05/28 07:10:30;;;;;;;8.15;3.58;;;;;;;;;;6209839;23;20017;-85
2023/05/28 07:12:56;;;;;;;7.80;3.92;;;;;;;;;;6209655;23;19996;-87
2023/05/28 07:15:22;;;;;;;8.18;3.00;;;;;;;;;;6201738;23;19993;-87
2023/05/28 07:17:48;;;;;;;10.38;3.60;;;;;;;;;;6202183;23;20001;-87
2023/05/28 07:20:16;;;;;;;9.73;3.97;;;;;;;;;;6200409;23;20006;-84
2023/05/28 07:22:42;;;;;;;8.30;3.70;;;;;;;;;;6201023;23;20001;-86
2023/05/28 07:25:08;;;;;;;8.75;3.80;;;;;;;;;;6201730;23;20009;-91
2023/05/28 07:27:34;;;;;;;6.88;3.38;;;;;;;;;;6203818;23;20039;-87
2023/05/28 07:30:00;;;;;;;8.18;3.42;;;;;;;;;;6202967;23;20008;-87
2023/05/28 07:32:26;;;;;;;9.52;3.72;;;;;;;;;;6177421;23;20092;-90
2023/05/28 07:34:52;;;;;;;8.70;3.50;;;;;;;;;;6198931;23;20001;-89
2023/05/28 07:37:18;;;;;;;7.63;3.50;;;;;;;;;;6198400;23;20043;-88
2023/05/28 07:39:44;;;;;;;6.05;3.67;;;;;;;;;;6197144;23;20016;-88
2023/05/28 07:42:10;;;;;;;10.18;4.05;;;;;;;;;;6195494;23;20282;-88
2023/05/28 07:49:54;;;;;;;7.63;3.47;;;;;;;;;;6181432;23;20008;-85
2023/05/28 07:52:20;;;;;;;10.05;3.78;;;;;;;;;;6242970;23;20000;-86
2023/05/28 08:02:35;;;;;;;7.82;3.42;;;;;;;;;;6143122;23;20007;-84
2023/05/28 08:05:01;;;;;;;6.93;3.40;;;;;;;;;;6243135;23;20004;-83
2023/05/28 08:07:31;;;;;;;9.45;3.65;;;20.70;83.50;;;;;;6198513;23;20032;-85
2023/05/28 08:09:57;;;;;;;9.32;4.30;;;;;;;;;;6181069;23;20025;-84
2023/05/28 08:12:23;;;;;;;10.45;3.70;;;;;;;;;;6187155;23;20022;-85
2023/05/28 08:14:50;;;;;;;11.63;3.78;;;;;;;;;;6212235;23;20094;-85
2023/05/28 08:17:18;;;;;;;7.95;3.42;;;;;;;;;;6200017;23;20021;-85
2023/05/28 08:19:44;;;;;;;7.57;3.50;;;;;;;;;;6182364;23;20005;-83
2023/05/28 08:22:10;;;;;;;8.73;3.78;;;;;;;;;;6127106;23;20017;-84
2023/05/28 08:32:23;;;;;;;10.07;3.88;;;;;;;;;;6193375;23;20001;-85
2023/05/28 08:34:50;;;;;;;6.97;3.47;;;;;;;;;;6212453;23;19997;-85
2023/05/28 08:37:21;;;;;;;6.65;3.40;;;;;;;;;;6176801;23;20006;-82
2023/05/28 08:47:35;;;;;;;9.13;3.40;;;;;;;;;;6195850;23;20033;-84
2023/05/28 08:50:16;;;;;;;7.93;3.53;;;;;;;;;;6186201;23;20009;-83
2023/05/28 08:52:45;;;;;;;11.13;3.67;;;;;;;;;;6187120;23;20013;-83
2023/05/28 08:55:11;;;;;;;7.43;3.72;;;;;;;;;;6214214;23;20000;-82
2023/05/28 08:57:38;;;;;;;8.93;3.83;;;22.70;78.90;;;;;;6180973;23;20005;-81
2023/05/28 09:00:18;;;;;;;9.90;3.60;;;;;;;;;;6192113;23;20009;-86
2023/05/28 09:02:45;;;;;;;7.68;3.40;;;;;;;;;;6214369;23;20013;-85
2023/05/28 09:07:45;;;;;;;8.75;3.85;;;;;;;;;;6155432;23;20006;-84
2023/05/28 09:10:14;;;;;;;9.60;3.42;;;;;;;;;;6155019;23;20008;-84
2023/05/28 09:15:17;;;;;;;9.57;3.47;;;;;;;;;;6127968;23;20026;-87
2023/05/28 09:20:19;;;;;;;6.60;3.22;;;;;;;;;;6157054;23;19997;-85
2023/05/28 09:22:46;;;;;;;6.05;3.20;;;;;;;;;;6213690;23;20016;-84
2023/05/28 09:25:14;;;;;;;7.57;3.13;;;;;;;;;;6213947;23;20005;-85
2023/05/28 09:27:45;;;;;;;5.85;3.45;;;;;;;;;;6176111;23;20013;-84
2023/05/28 09:33:03;;;;;;;6.55;3.10;;;;;;;;;;6212277;23;20106;-84
2023/05/28 09:36:02;;;;;;;7.18;3.25;;;23.70;69.50;;;;;;6209595;23;20026;-84
2023/05/28 09:38:51;;;;;;;7.55;3.17;;;23.80;69.80;;;;;;6191219;23;19989;-85
2023/05/28 09:41:22;;;;;;;7.07;3.23;;;23.90;67.40;;;;;;6198645;23;19988;-85
2023/05/28 09:46:33;;;;;;;6.80;2.80;;;23.90;66.50;;;;;;6182187;23;19900;-86
2023/05/28 09:49:00;;;;;;;6.80;3.50;;;24.10;67.60;;;;;;6159260;23;20009;-85
2023/05/28 09:51:54;;;;;;;7.57;3.67;;;24.30;68.60;;;;;;6184888;23;20010;-86
2023/05/28 09:54:20;;;;;;;8.52;3.38;;;;;;;;;;6145685;23;20016;-85
2023/05/28 09:56:56;;;;;;;7.72;3.10;;;24.50;65.70;;;;;;6188395;23;19989;-86
2023/05/28 09:59:39;;;;;;;7.63;3.00;;;24.70;65.00;;;;;;6166988;23;20025;-85
2023/05/28 10:02:21;;;;;;;7.93;3.00;;;;;;;;;;6137214;23;20025;-84
2023/05/28 10:07:28;;;;;;;7.28;3.30;;;24.80;60.70;;;;;;6153618;23;20025;-86
2023/05/28 10:09:55;;;;;;;7.95;3.10;;;;;;;;;;6188835;23;20109;-86
2023/05/28 10:17:32;;;;;;;7.32;3.17;;;;;;;;;;6242718;23;20004;-87
2023/05/28 10:19:58;;;;;;;7.53;2.92;;;;;;;;;;6219091;23;19989;-85
2023/05/28 10:28:18;;;;;;;7.47;3.00;;;24.90;61.60;;;;;;6244019;23;20028;-85
2023/05/28 10:30:44;;;;;;;8.40;3.22;;;;;;;;;;6206426;23;20005;-86
2023/05/28 10:33:22;;;;;;;6.75;3.20;;;25.10;62.50;;;;;;6243954;23;20005;-87
2023/05/28 10:36:00;;;;;;;6.50;2.95;;;25.10;61.90;;;;;;6216919;23;19993;-87
2023/05/28 10:38:31;;;;;;;7.93;3.33;;;;;;;;;;6242156;23;20008;-86
2023/05/28 10:41:06;;;;;;;8.55;3.33;;;;;;;;;;6217695;23;20035;-87
2023/05/28 10:56:30;;;;;;;7.78;3.05;;;;;;;;;;6242906;23;20009;-85
2023/05/28 11:01:38;;;;;;;6.85;3.00;;;;;;;;;;6242775;23;20027;-84
2023/05/28 11:09:16;;;;;;;7.82;3.47;;;;;;;;;;6242294;23;20005;-86
2023/05/28 11:11:42;;;;;;;7.15;3.10;;;;;;;;;;6145341;23;20069;-84
2023/05/28 11:24:36;;;;;;;5.65;2.58;;;;;;;;;;6194913;23;20052;-85
2023/05/28 11:29:41;;;;;;;9.45;3.00;;;25.80;58.30;;;;;;6156258;23;20012;-86
2023/05/28 11:32:12;;;;;;;;;;;25.90;58.00;;;;;;6212460;23;19997;-85
2023/05/28 11:35:20;;;;;;;6.15;2.80;;;;;;;;;;6186939;23;19892;-83
2023/05/28 11:37:49;;;;;;;6.85;3.30;;;;;;;;;;6192401;23;20009;-86
2023/05/28 12:34:42;;;;;;;8.35;3.08;;;;;;;;;;6178187;23;20020;-86
2023/05/28 12:37:09;;;;;;;5.57;2.90;;;;;;;;;;6211515;23;20073;-86
2023/05/28 12:39:42;;;;;;;7.90;3.10;;;;;;;;;;6186873;23;19993;-87
2023/05/28 12:42:29;;;;;;;8.63;3.80;;;;;;;;;;6212603;23;20027;-86
2023/05/28 12:50:07;;;;;;;7.85;3.22;;;;;;;;;;6187261;23;20020;-83
2023/05/28 13:05:56;;;;;;;7.18;3.47;;;;;;;;;;6149540;23;20176;-82
2023/05/28 13:08:24;;;;;;;5.32;3.10;;;;;;;;;;6234094;23;20029;-81
2023/05/28 13:11:38;;;;;;;7.85;2.97;;;26.80;57.60;;;;;;6222251;23;20008;-82
2023/05/28 13:17:15;;;;;;;6.30;3.10;;;;;;;;;;6232988;23;20019;-82
2023/05/28 13:19:48;;;;;;;6.22;3.50;;;;;;;;;;6206970;23;20005;-82
2023/05/28 13:22:15;;;;;;;8.45;3.40;;;;;;;;;;6228427;23;20055;-81
2023/05/28 13:24:42;;;;;;;7.78;3.20;;;;;;;;;;6199143;23;20138;-82
2023/05/28 13:48:52;;;;;;;6.72;3.63;;;;;;;;;;6232869;23;20016;-85
2023/05/28 13:51:21;;;;;;;5.65;3.10;;;;;;;;;;6219320;23;20294;-84
2023/05/28 19:39:29;;;;;;;8.90;5.60;;;;;;;;;;6207950;23;20074;-84
2023/05/28 20:14:32;;;;;;;10.63;6.35;;;21.30;68.40;;;;;;6212717;23;20059;-82
2023/05/28 20:41:01;;;;;;;9.00;5.38;;;;;;;;;;6198375;23;20001;-83
2023/05/28 20:43:46;;;;;;;9.82;5.93;;;;;;;;;;6187307;23;20029;-88
2023/05/28 21:31:56;;;;;;;10.93;6.28;;;19.70;74.40;;;;;;6214872;23;20028;-86
2023/05/28 21:34:29;;;;;;;14.50;6.80;;;;;;;;;;6214759;23;20004;-87
2023/05/28 22:34:46;;;;;;;18.02;8.20;;;17.90;82.70;;;;;;6179539;23;20028;-82
2023/05/28 22:37:15;;;;;;;12.88;7.78;;;;;;;;;;6193754;23;20009;-83
2023/05/28 22:40:08;;;;;;;11.32;7.28;;;17.90;83.10;;;;;;6170047;23;19997;-82
2023/05/28 22:42:43;;;;;;;12.13;6.90;;;;;;;;;;6193145;23;20418;-84
2023/05/28 22:45:16;;;;;;;12.73;7.10;;;17.70;83.70;;;;;;6194008;23;20076;-81
2023/05/28 22:47:46;;;;;;;11.27;6.40;;;;;;;;;;6192518;23;20020;-83
2023/05/28 22:50:32;;;;;;;14.02;6.47;;;;;;;;;;6193384;23;20006;-81
2023/05/28 22:53:01;;;;;;;13.45;7.28;;;17.50;85.60;;;;;;6192445;23;20442;-81
2023/05/28 22:55:32;;;;;;;;;;;17.50;85.00;;;;;;6191956;23;20036;-80
2023/05/28 22:58:23;;;;;;;10.77;6.60;;;17.40;85.70;;;;;;6137685;23;20347;-82
2023/05/28 23:01:30;;;;;;;11.80;6.65;;;17.30;85.80;;;;;;6160165;23;20325;-85
2023/05/28 23:04:17;;;;;;;12.23;6.85;;;17.20;86.50;;;;;;6199226;23;20008;-81
2023/05/28 23:06:45;;;;;;;15.88;7.85;;;;;;;;;;6162541;23;20028;-82
2023/05/28 23:09:43;;;;;;;11.15;6.90;;;17.20;87.00;;;;;;6164541;23;20013;-82
2023/05/28 23:12:39;;;;;;;10.73;6.57;;;17.20;87.30;;;;;;6170375;23;20511;-80
2023/05/28 23:15:42;;;;;;;13.02;6.30;;;17.10;87.40;;;;;;6197653;23;20024;-81
2023/05/28 23:18:21;;;;;;;13.57;6.82;;;;;;;;;;6195271;23;20012;-82
2023/05/28 23:20:50;;;;;;;12.15;7.30;;;;;;;;;;6188207;23;20024;-82
2023/05/28 23:23:43;;;;;;;12.30;7.05;;;17.10;88.20;;;;;;6162563;23;20004;-81
2023/05/28 23:26:11;;;;;;;10.38;6.00;;;;;;;;;;6187710;23;20009;-82
2023/05/28 23:28:38;;;;;;;12.10;6.00;;;;;;;;;;6164704;23;20020;-82
2023/05/28 23:31:05;;;;;;;12.70;6.68;;;;;;;;;;6161148;23;20332;-82
2023/05/28 23:36:26;;;;;;;12.88;6.53;;;;;;;;;;6184587;23;20092;-81
2023/05/28 23:38:53;;;;;;;12.68;6.30;;;;;;;;;;6155734;23;20032;-83
2023/05/28 23:41:22;;;;;;;14.60;6.65;;;;;;;;;;6158309;23;20008;-83
2023/05/28 23:43:49;;;;;;;11.50;5.97;;;;;;;;;;6158588;23;20029;-82
2023/05/28 23:46:17;;;;;;;11.63;6.00;;;;;;;;;;6161005;23;20005;-83
2023/05/28 23:48:43;;;;;;;13.82;7.65;;;;;;;;;;6160208;23;20316;-83
2023/05/28 23:51:10;;;;;;;12.23;6.53;;;;;;;;;;6159510;23;20001;-83
2023/05/28 23:53:36;;;;;;;10.10;6.35;;;;;;;;;;6161161;23;20001;-82
2023/05/28 23:56:03;;;;;;;11.77;6.22;;;;;;;;;;6188106;23;20744;-81
2023/05/28 23:58:29;;;;;;;11.70;6.10;;;;;;;;;;6186938;23;20005;-82
